Time,TemperatureF,DewpointF,PressureIn,WindDirection,WindDirectionDegrees,WindSpeedMPH,WindSpeedGustMPH,Humidity,HourlyPrecipIn,Conditions,Clouds,dailyrainin,SoftwareType,DateUTC
2013-03-09 00:00:00,42.0,36.0,-100.00,North,10,3.0,-999.0,77,0.00,,,-99.99,,2013-03-09 08:00:00,
2013-03-09 00:22:00,42.0,36.0,-100.00,North,10,3.0,-999.0,77,0.00,,,-99.99,,2013-03-09 08:22:00,
2013-03-09 00:32:00,42.0,36.0,-100.00,North,10,3.0,-999.0,77,0.00,,,-99.99,,2013-03-09 08:32:00,
2013-03-09 00:42:00,42.0,36.0,-100.00,North,10,3.0,-999.0,77,0.00,,,-99.99,,2013-03-09 08:42:00,
2013-03-09 00:52:00,42.0,36.0,-100.00,North,10,3.0,-999.0,77,0.00,,,-99.99,,2013-03-09 08:52:00,
2013-03-09 01:00:00,42.0,36.0,-100.00,SE,138,3.0,-999.0,79,0.00,,,-99.99,,2013-03-09 09:00:00,
2013-03-09 01:21:00,42.0,36.0,-100.00,SE,138,3.0,-999.0,79,0.00,,,-99.99,,2013-03-09 09:21:00,
2013-03-09 01:32:00,42.0,36.0,-100.00,SE,138,3.0,-999.0,79,0.00,,,-99.99,,2013-03-09 09:32:00,
2013-03-09 01:42:00,42.0,36.0,-100.00,SE,138,3.0,-999.0,79,0.00,,,-99.99,,2013-03-09 09:42:00,
2013-03-09 01:52:00,42.0,36.0,-100.00,SE,138,3.0,-999.0,79,0.00,,,-99.99,,2013-03-09 09:52:00,
2013-03-09 02:00:00,40.0,35.0,-100.00,North,353,3.0,-999.0,83,0.00,,,-99.99,,2013-03-09 10:00:00,
2013-03-09 02:22:00,40.0,35.0,-100.00,North,353,3.0,-999.0,83,0.00,,,-99.99,,2013-03-09 10:22:00,
2013-03-09 02:32:00,40.0,35.0,-100.00,North,353,3.0,-999.0,83,0.00,,,-99.99,,2013-03-09 10:32:00,
2013-03-09 02:42:00,40.0,35.0,-100.00,North,353,3.0,-999.0,83,0.00,,,-99.99,,2013-03-09 10:42:00,
2013-03-09 02:52:00,40.0,35.0,-100.00,North,353,3.0,-999.0,83,0.00,,,-99.99,,2013-03-09 10:52:00,
2013-03-09 03:00:00,37.0,35.0,-100.00,South,182,5.0,-999.0,91,0.00,,,-99.99,,2013-03-09 11:00:00,
2013-03-09 03:22:00,37.0,35.0,-100.00,South,182,5.0,-999.0,91,0.00,,,-99.99,,2013-03-09 11:22:00,
2013-03-09 03:32:00,37.0,35.0,-100.00,South,182,5.0,-999.0,91,0.00,,,-99.99,,2013-03-09 11:32:00,
2013-03-09 03:42:00,37.0,35.0,-100.00,South,182,5.0,-999.0,91,0.00,,,-99.99,,2013-03-09 11:42:00,
2013-03-09 03:52:00,37.0,35.0,-100.00,South,182,5.0,-999.0,91,0.00,,,-99.99,,2013-03-09 11:52:00,
2013-03-09 04:00:00,36.0,34.0,-100.00,South,171,4.0,-999.0,91,0.00,,,-99.99,,2013-03-09 12:00:00,
2013-03-09 04:22:00,36.0,34.0,-100.00,South,171,4.0,-999.0,91,0.00,,,-99.99,,2013-03-09 12:22:00,
2013-03-09 04:32:00,36.0,34.0,-100.00,South,171,4.0,-999.0,91,0.00,,,-99.99,,2013-03-09 12:32:00,
2013-03-09 04:42:00,36.0,34.0,-100.00,South,171,4.0,-999.0,91,0.00,,,-99.99,,2013-03-09 12:42:00,
2013-03-09 04:52:00,36.0,34.0,-100.00,South,171,4.0,-999.0,91,0.00,,,-99.99,,2013-03-09 12:52:00,
2013-03-09 05:00:00,36.0,34.0,-100.00,NNE,18,2.0,-999.0,92,0.00,,,-99.99,,2013-03-09 13:00:00,
2013-03-09 05:22:00,36.0,34.0,-100.00,NNE,18,2.0,-999.0,92,0.00,,,-99.99,,2013-03-09 13:22:00,
2013-03-09 05:32:00,36.0,34.0,-100.00,NNE,18,2.0,-999.0,92,0.00,,,-99.99,,2013-03-09 13:32:00,
2013-03-09 05:42:00,36.0,34.0,-100.00,NNE,18,2.0,-999.0,92,0.00,,,-99.99,,2013-03-09 13:42:00,
2013-03-09 05:52:00,36.0,34.0,-100.00,NNE,18,2.0,-999.0,92,0.00,,,-99.99,,2013-03-09 13:52:00,
2013-03-09 06:00:00,35.0,34.0,-100.00,South,189,3.0,-999.0,93,0.00,,,-99.99,,2013-03-09 14:00:00,
2013-03-09 06:22:00,35.0,34.0,-100.00,South,189,3.0,-999.0,93,0.00,,,-99.99,,2013-03-09 14:22:00,
2013-03-09 06:32:00,35.0,34.0,-100.00,South,189,3.0,-999.0,93,0.00,,,-99.99,,2013-03-09 14:32:00,
2013-03-09 06:42:00,35.0,34.0,-100.00,South,189,3.0,-999.0,93,0.00,,,-99.99,,2013-03-09 14:42:00,
2013-03-09 06:52:00,35.0,34.0,-100.00,South,189,3.0,-999.0,93,0.00,,,-99.99,,2013-03-09 14:52:00,
2013-03-09 07:00:00,34.0,32.0,-100.00,South,174,5.0,-999.0,94,0.00,,,-99.99,,2013-03-09 15:00:00,
2013-03-09 07:22:00,34.0,32.0,-100.00,South,174,5.0,-999.0,94,0.00,,,-99.99,,2013-03-09 15:22:00,
2013-03-09 07:32:00,34.0,32.0,-100.00,South,174,5.0,-999.0,94,0.00,,,-99.99,,2013-03-09 15:32:00,
2013-03-09 07:42:00,34.0,32.0,-100.00,South,174,5.0,-999.0,94,0.00,,,-99.99,,2013-03-09 15:42:00,
2013-03-09 07:52:00,34.0,32.0,-100.00,South,174,5.0,-999.0,94,0.00,,,-99.99,,2013-03-09 15:52:00,
2013-03-09 08:00:00,34.0,33.0,-100.00,South,170,3.0,-999.0,94,0.00,,,-99.99,,2013-03-09 16:00:00,
2013-03-09 08:22:00,34.0,33.0,-100.00,South,170,3.0,-999.0,94,0.00,,,-99.99,,2013-03-09 16:22:00,
2013-03-09 08:32:00,34.0,33.0,-100.00,South,170,3.0,-999.0,94,0.00,,,-99.99,,2013-03-09 16:32:00,
2013-03-09 08:42:00,34.0,33.0,-100.00,South,170,3.0,-999.0,94,0.00,,,-99.99,,2013-03-09 16:42:00,
2013-03-09 08:52:00,34.0,33.0,-100.00,South,170,3.0,-999.0,94,0.00,,,-99.99,,2013-03-09 16:52:00,
2013-03-09 09:00:00,40.0,36.0,-100.00,SSE,164,2.0,-999.0,87,0.00,,,-99.99,,2013-03-09 17:00:00,
2013-03-09 09:22:00,40.0,36.0,-100.00,SSE,164,2.0,-999.0,87,0.00,,,-99.99,,2013-03-09 17:22:00,
2013-03-09 09:32:00,40.0,36.0,-100.00,SSE,164,2.0,-999.0,87,0.00,,,-99.99,,2013-03-09 17:32:00,
2013-03-09 09:42:00,40.0,36.0,-100.00,SSE,164,2.0,-999.0,87,0.00,,,-99.99,,2013-03-09 17:42:00,
2013-03-09 09:52:00,40.0,36.0,-100.00,SSE,164,2.0,-999.0,87,0.00,,,-99.99,,2013-03-09 17:52:00,
2013-03-09 10:00:00,46.0,38.0,-100.00,South,180,4.0,-999.0,73,0.00,,,-99.99,,2013-03-09 18:00:00,
2013-03-09 10:22:00,46.0,38.0,-100.00,South,180,4.0,-999.0,73,0.00,,,-99.99,,2013-03-09 18:22:00,
2013-03-09 10:32:00,46.0,38.0,-100.00,South,180,4.0,-999.0,73,0.00,,,-99.99,,2013-03-09 18:32:00,
2013-03-09 10:42:00,46.0,38.0,-100.00,South,180,4.0,-999.0,73,0.00,,,-99.99,,2013-03-09 18:42:00,
2013-03-09 10:52:00,46.0,38.0,-100.00,South,180,4.0,-999.0,73,0.00,,,-99.99,,2013-03-09 18:52:00,
2013-03-09 11:00:00,54.0,40.0,-100.00,SE,133,1.0,-999.0,58,0.00,,,-99.99,,2013-03-09 19:00:00,
2013-03-09 11:22:00,54.0,40.0,-100.00,SE,133,1.0,-999.0,58,0.00,,,-99.99,,2013-03-09 19:22:00,
2013-03-09 11:32:00,54.0,40.0,-100.00,SE,133,1.0,-999.0,58,0.00,,,-99.99,,2013-03-09 19:32:00,
2013-03-09 11:42:00,54.0,40.0,-100.00,SE,133,1.0,-999.0,58,0.00,,,-99.99,,2013-03-09 19:42:00,
2013-03-09 11:52:00,54.0,40.0,-100.00,SE,133,1.0,-999.0,58,0.00,,,-99.99,,2013-03-09 19:52:00,
2013-03-09 12:00:00,61.0,42.0,-100.00,SW,218,2.0,-999.0,50,0.00,,,-99.99,,2013-03-09 20:00:00,
2013-03-09 12:22:00,61.0,42.0,-100.00,SW,218,2.0,-999.0,50,0.00,,,-99.99,,2013-03-09 20:22:00,
2013-03-09 12:32:00,61.0,42.0,-100.00,SW,218,2.0,-999.0,50,0.00,,,-99.99,,2013-03-09 20:32:00,
2013-03-09 13:00:00,63.0,41.0,-100.00,NW,308,2.0,-999.0,43,0.00,,,-99.99,,2013-03-09 21:00:00,
2013-03-09 13:22:00,63.0,41.0,-100.00,NW,308,2.0,-999.0,43,0.00,,,-99.99,,2013-03-09 21:22:00,
2013-03-09 13:32:00,63.0,41.0,-100.00,NW,308,2.0,-999.0,43,0.00,,,-99.99,,2013-03-09 21:32:00,
2013-03-09 13:42:00,63.0,41.0,-100.00,NW,308,2.0,-999.0,43,0.00,,,-99.99,,2013-03-09 21:42:00,
2013-03-09 13:52:00,63.0,41.0,-100.00,NW,308,2.0,-999.0,43,0.00,,,-99.99,,2013-03-09 21:52:00,
2013-03-09 14:00:00,65.0,37.0,-100.00,NW,323,4.0,-999.0,35,0.00,,,-99.99,,2013-03-09 22:00:00,
2013-03-09 14:22:00,65.0,37.0,-100.00,NW,323,4.0,-999.0,35,0.00,,,-99.99,,2013-03-09 22:22:00,
2013-03-09 14:32:00,65.0,37.0,-100.00,NW,323,4.0,-999.0,35,0.00,,,-99.99,,2013-03-09 22:32:00,
2013-03-09 14:42:00,65.0,37.0,-100.00,NW,323,4.0,-999.0,35,0.00,,,-99.99,,2013-03-09 22:42:00,
2013-03-09 14:52:00,65.0,37.0,-100.00,NW,323,4.0,-999.0,35,0.00,,,-99.99,,2013-03-09 22:52:00,
2013-03-09 15:22:00,68.0,33.0,-100.00,North,355,5.0,-999.0,27,0.00,,,-99.99,,2013-03-09 23:22:00,
2013-03-09 15:32:00,68.0,33.0,-100.00,North,355,5.0,-999.0,27,0.00,,,-99.99,,2013-03-09 23:32:00,
2013-03-09 16:00:00,66.0,38.0,-100.00,NW,326,4.0,-999.0,36,0.00,,,-99.99,,2013-03-10 00:00:00,
2013-03-09 16:22:00,66.0,38.0,-100.00,NW,326,4.0,-999.0,36,0.00,,,-99.99,,2013-03-10 00:22:00,
2013-03-09 16:32:00,66.0,38.0,-100.00,NW,326,4.0,-999.0,36,0.00,,,-99.99,,2013-03-10 00:32:00,
2013-03-09 16:43:00,66.0,38.0,-100.00,NW,326,4.0,-999.0,36,0.00,,,-99.99,,2013-03-10 00:43:00,
2013-03-09 16:52:00,66.0,38.0,-100.00,NW,326,4.0,-999.0,36,0.00,,,-99.99,,2013-03-10 00:52:00,
2013-03-09 17:22:00,65.0,39.0,-100.00,NW,322,4.0,-999.0,37,0.00,,,-99.99,,2013-03-10 01:22:00,
2013-03-09 17:32:00,65.0,39.0,-100.00,NW,322,4.0,-999.0,37,0.00,,,-99.99,,2013-03-10 01:32:00,
2013-03-09 17:42:00,65.0,39.0,-100.00,NW,322,4.0,-999.0,37,0.00,,,-99.99,,2013-03-10 01:42:00,
2013-03-09 17:52:00,65.0,39.0,-100.00,NW,322,4.0,-999.0,37,0.00,,,-99.99,,2013-03-10 01:52:00,
2013-03-09 18:22:00,63.0,37.0,-100.00,NNW,329,3.0,-999.0,39,0.00,,,-99.99,,2013-03-10 02:22:00,
2013-03-09 18:32:00,63.0,37.0,-100.00,NNW,329,3.0,-999.0,39,0.00,,,-99.99,,2013-03-10 02:32:00,
2013-03-09 19:00:00,56.0,40.0,-100.00,NNW,331,5.0,-999.0,55,0.00,,,-99.99,,2013-03-10 03:00:00,
2013-03-09 19:32:00,56.0,40.0,-100.00,NNW,331,5.0,-999.0,55,0.00,,,-99.99,,2013-03-10 03:32:00,
2013-03-09 19:42:00,56.0,40.0,-100.00,NNW,331,5.0,-999.0,55,0.00,,,-99.99,,2013-03-10 03:42:00,
2013-03-09 19:52:00,56.0,40.0,-100.00,NNW,331,5.0,-999.0,55,0.00,,,-99.99,,2013-03-10 03:52:00,
2013-03-09 20:00:00,53.0,38.0,-100.00,North,352,4.0,-999.0,55,0.00,,,-99.99,,2013-03-10 04:00:00,
2013-03-09 20:22:00,53.0,38.0,-100.00,North,352,4.0,-999.0,55,0.00,,,-99.99,,2013-03-10 04:22:00,
2013-03-09 20:32:00,53.0,38.0,-100.00,North,352,4.0,-999.0,55,0.00,,,-99.99,,2013-03-10 04:32:00,
2013-03-09 20:42:00,53.0,38.0,-100.00,North,352,4.0,-999.0,55,0.00,,,-99.99,,2013-03-10 04:42:00,
2013-03-09 20:52:00,53.0,38.0,-100.00,North,352,4.0,-999.0,55,0.00,,,-99.99,,2013-03-10 04:52:00,
2013-03-09 21:00:00,49.0,38.0,-100.00,NNW,342,3.0,-999.0,65,0.00,,,-99.99,,2013-03-10 05:00:00,
2013-03-09 21:22:00,49.0,38.0,-100.00,NNW,342,3.0,-999.0,65,0.00,,,-99.99,,2013-03-10 05:22:00,
2013-03-09 21:32:00,49.0,38.0,-100.00,NNW,342,3.0,-999.0,65,0.00,,,-99.99,,2013-03-10 05:32:00,
2013-03-09 21:42:00,49.0,38.0,-100.00,NNW,342,3.0,-999.0,65,0.00,,,-99.99,,2013-03-10 05:42:00,
2013-03-09 21:52:00,49.0,38.0,-100.00,NNW,342,3.0,-999.0,65,0.00,,,-99.99,,2013-03-10 05:52:00,
2013-03-09 22:00:00,46.0,40.0,-100.00,SSW,193,4.0,-999.0,79,0.00,,,-99.99,,2013-03-10 06:00:00,
2013-03-09 22:22:00,46.0,40.0,-100.00,SSW,193,4.0,-999.0,79,0.00,,,-99.99,,2013-03-10 06:22:00,
2013-03-09 22:32:00,46.0,40.0,-100.00,SSW,193,4.0,-999.0,79,0.00,,,-99.99,,2013-03-10 06:32:00,
2013-03-09 22:42:00,46.0,40.0,-100.00,SSW,193,4.0,-999.0,79,0.00,,,-99.99,,2013-03-10 06:42:00,
2013-03-09 22:52:00,46.0,40.0,-100.00,SSW,193,4.0,-999.0,79,0.00,,,-99.99,,2013-03-10 06:52:00,
2013-03-09 23:00:00,43.0,38.0,-100.00,NNE,18,0.0,-999.0,85,0.00,,,-99.99,,2013-03-10 07:00:00,
2013-03-09 23:21:00,43.0,38.0,-100.00,NNE,18,0.0,-999.0,85,0.00,,,-99.99,,2013-03-10 07:21:00,
2013-03-09 23:32:00,43.0,38.0,-100.00,NNE,18,0.0,-999.0,85,0.00,,,-99.99,,2013-03-10 07:32:00,
2013-03-09 23:42:00,43.0,38.0,-100.00,NNE,18,0.0,-999.0,85,0.00,,,-99.99,,2013-03-10 07:42:00,
2013-03-09 23:52:00,43.0,38.0,-100.00,NNE,18,0.0,-999.0,85,0.00,,,-99.99,,2013-03-10 07:52:00,